createdAt,value
2018-04-15T00:01:51.590Z,5.83
2018-04-15T00:04:19.131Z,5.27
2018-04-15T00:06:46.654Z,5.70
2018-04-15T00:09:14.381Z,5.43
2018-04-15T00:11:41.958Z,4.80
2018-04-15T00:14:10.259Z,5.50
2018-04-15T00:16:37.820Z,6.10
2018-04-15T00:19:05.378Z,4.90
2018-04-15T00:21:32.904Z,5.43
2018-04-15T00:24:00.470Z,6.43
2018-04-15T00:26:28.023Z,5.27
2018-04-15T00:28:55.589Z,5.17
2018-04-15T00:31:23.098Z,5.00
2018-04-15T00:33:50.639Z,5.43
2018-04-15T00:36:18.199Z,5.13
2018-04-15T00:38:45.741Z,5.43
2018-04-15T00:41:14.055Z,4.97
2018-04-15T00:43:41.564Z,5.13
2018-04-15T00:46:09.115Z,5.40
2018-04-15T00:48:36.630Z,4.30
2018-04-15T00:51:04.173Z,5.23
2018-04-15T00:53:43.326Z,5.30
2018-04-15T00:56:10.878Z,5.10
2018-04-15T00:58:38.409Z,5.17
2018-04-15T01:01:05.973Z,5.50
2018-04-15T01:03:33.522Z,4.80
2018-04-15T01:06:01.864Z,5.70
2018-04-15T01:08:29.673Z,5.77
2018-04-15T01:10:58.185Z,5.70
2018-04-15T01:13:25.718Z,5.10
2018-04-15T01:15:53.264Z,4.97
2018-04-15T01:18:21.594Z,5.27
2018-04-15T01:20:49.110Z,5.43
2018-04-15T01:23:17.458Z,5.67
2018-04-15T01:25:45.051Z,4.77
2018-04-15T01:28:12.629Z,4.70
2018-04-15T01:30:40.152Z,5.03
2018-04-15T01:33:08.514Z,4.87
2018-04-15T01:35:36.074Z,5.27
2018-04-15T01:38:03.588Z,4.60
2018-04-15T01:40:31.123Z,5.23
2018-04-15T01:42:58.640Z,5.53
2018-04-15T01:45:26.216Z,5.43
2018-04-15T01:47:53.741Z,5.30
2018-04-15T01:50:21.303Z,5.27
2018-04-15T01:52:48.818Z,4.97
2018-04-15T01:55:32.040Z,5.20
2018-04-15T01:58:00.358Z,5.40
2018-04-15T02:00:27.892Z,5.43
2018-04-15T02:02:55.496Z,4.50
2018-04-15T02:05:23.041Z,5.37
2018-04-15T02:07:50.618Z,4.60
2018-04-15T02:10:18.224Z,4.40
2018-04-15T02:12:46.541Z,4.70
2018-04-15T02:15:14.099Z,5.03
2018-04-15T02:17:41.692Z,4.87
2018-04-15T02:20:09.231Z,4.77
2018-04-15T02:22:36.834Z,4.93
2018-04-15T02:25:04.400Z,5.10
2018-04-15T02:27:31.960Z,5.30
2018-04-15T02:30:00.292Z,5.63
2018-04-15T02:32:27.851Z,4.40
2018-04-15T02:34:55.417Z,5.00
2018-04-15T02:37:22.972Z,4.40
2018-04-15T02:39:50.503Z,4.60
2018-04-15T02:42:18.059Z,4.70
2018-04-15T02:44:45.596Z,5.07
2018-04-15T02:47:13.152Z,5.00
2018-04-15T02:49:41.487Z,4.60
2018-04-15T02:52:09.044Z,5.37
2018-04-15T02:54:36.608Z,5.07
2018-04-15T02:57:04.183Z,4.77
2018-04-15T02:59:31.727Z,5.40
2018-04-15T03:01:59.302Z,5.20
2018-04-15T03:04:26.848Z,5.27
2018-04-15T03:06:54.459Z,5.80
2018-04-15T03:09:21.995Z,5.50
2018-04-15T03:11:49.582Z,5.47
2018-04-15T03:14:17.151Z,5.40
2018-04-15T03:16:44.688Z,5.67
2018-04-15T03:19:12.250Z,4.97
2018-04-15T03:21:40.547Z,5.47
2018-04-15T03:24:08.082Z,5.67
2018-04-15T03:26:36.425Z,4.87
2018-04-15T03:29:04.029Z,5.10
2018-04-15T03:31:31.599Z,4.57
2018-04-15T03:33:59.127Z,5.10
2018-04-15T03:36:26.688Z,4.60
2018-04-15T03:38:54.224Z,4.63
2018-04-15T03:41:21.785Z,5.00
2018-04-15T03:43:49.349Z,4.83
2018-04-15T03:46:16.904Z,5.37
2018-04-15T03:48:44.437Z,5.00
2018-04-15T03:51:11.988Z,4.80
2018-04-15T03:53:39.558Z,4.50
2018-04-15T03:56:07.092Z,4.37
2018-04-15T03:58:34.656Z,5.20
2018-04-15T04:01:02.192Z,5.00
2018-04-15T04:03:29.799Z,5.33
2018-04-15T04:05:57.332Z,4.83
2018-04-15T04:08:24.875Z,5.30
2018-04-15T04:10:52.474Z,5.23
2018-04-15T04:13:20.019Z,5.20
2018-04-15T04:15:47.608Z,5.10
2018-04-15T04:18:26.847Z,4.93
2018-04-15T04:21:06.164Z,4.90
2018-04-15T04:23:45.471Z,5.53
2018-04-15T04:26:13.003Z,5.20
2018-04-15T04:28:40.547Z,5.23
2018-04-15T04:31:08.935Z,5.03
2018-04-15T04:33:36.456Z,4.77
2018-04-15T04:36:03.983Z,4.70
2018-04-15T04:38:31.576Z,4.97
2018-04-15T04:40:59.155Z,4.97
2018-04-15T04:43:26.711Z,5.87
2018-04-15T04:45:54.235Z,5.20
2018-04-15T04:48:21.799Z,4.87
2018-04-15T04:50:49.380Z,4.97
2018-04-15T04:53:16.938Z,5.07
2018-04-15T04:55:44.467Z,5.30
2018-04-15T04:58:12.092Z,5.07
2018-04-15T05:00:39.636Z,5.20
2018-04-15T05:03:07.172Z,4.83
2018-04-15T05:05:34.738Z,5.70
2018-04-15T05:08:02.267Z,4.90
2018-04-15T05:10:29.829Z,5.10
2018-04-15T05:12:57.400Z,5.17
2018-04-15T05:15:24.973Z,5.13
2018-04-15T05:17:52.496Z,5.50
2018-04-15T05:20:20.060Z,5.63
2018-04-15T05:22:48.348Z,6.17
2018-04-15T05:25:15.908Z,6.07
2018-04-15T05:27:43.432Z,6.90
2018-04-15T05:30:11.764Z,6.93
2018-04-15T05:32:39.300Z,6.20
2018-04-15T05:35:06.832Z,6.50
2018-04-15T05:37:34.461Z,6.40
2018-04-15T05:40:01.959Z,7.00
2018-04-15T05:42:29.527Z,5.63
2018-04-15T05:44:57.140Z,6.07
2018-04-15T05:47:24.750Z,5.20
2018-04-15T05:49:52.294Z,5.53
2018-04-15T05:52:19.924Z,5.77
2018-04-15T05:54:47.470Z,5.83
2018-04-15T05:57:15.100Z,5.67
2018-04-15T05:59:42.751Z,5.97
2018-04-15T06:02:11.081Z,5.83
2018-04-15T06:04:38.625Z,6.23
2018-04-15T06:07:06.197Z,5.57
2018-04-15T06:09:33.797Z,5.37
2018-04-15T06:12:02.141Z,6.33
2018-04-15T06:14:29.704Z,5.27
2018-04-15T06:16:57.263Z,5.77
2018-04-15T06:19:25.571Z,5.97
2018-04-15T06:21:53.902Z,6.13
2018-04-15T06:24:21.530Z,6.00
2018-04-15T06:26:49.137Z,6.40
2018-04-15T06:29:16.720Z,6.67
2018-04-15T06:31:44.240Z,5.93
2018-04-15T06:34:11.806Z,6.53
2018-04-15T06:36:39.623Z,7.10
2018-04-15T06:39:07.139Z,6.23
2018-04-15T06:41:34.699Z,5.63
2018-04-15T06:44:02.234Z,7.17
2018-04-15T06:46:29.845Z,6.00
2018-04-15T06:48:57.405Z,6.10
2018-04-15T06:51:25.772Z,5.93
2018-04-15T06:53:53.318Z,6.23
2018-04-15T06:56:20.869Z,6.30
2018-04-15T06:58:48.435Z,5.90
2018-04-15T07:01:16.066Z,6.27
2018-04-15T07:03:43.600Z,6.83
2018-04-15T07:06:11.168Z,5.90
2018-04-15T07:08:39.510Z,7.23
2018-04-15T07:11:07.082Z,7.17
2018-04-15T07:13:34.664Z,6.70
2018-04-15T07:16:02.292Z,6.43
2018-04-15T07:18:29.897Z,7.00
2018-04-15T07:20:57.447Z,7.27
2018-04-15T07:23:25.055Z,6.23
2018-04-15T07:25:52.636Z,6.23
2018-04-15T07:28:20.288Z,7.03
2018-04-15T07:30:47.890Z,6.63
2018-04-15T07:33:15.691Z,6.20
2018-04-15T07:35:43.251Z,6.27
2018-04-15T07:38:10.799Z,5.97
2018-04-15T07:40:38.387Z,6.87
2018-04-15T07:43:05.909Z,6.30
2018-04-15T07:45:33.490Z,6.23
2018-04-15T07:48:01.719Z,6.60
2018-04-15T07:50:29.330Z,6.57
2018-04-15T07:52:57.110Z,6.60
2018-04-15T07:55:24.676Z,6.00
2018-04-15T07:57:52.418Z,7.07
2018-04-15T08:00:19.939Z,6.33
2018-04-15T08:02:47.488Z,5.87
2018-04-15T08:05:15.098Z,6.73
2018-04-15T08:07:42.697Z,6.00
2018-04-15T08:10:10.326Z,6.40
2018-04-15T08:12:37.939Z,5.80
2018-04-15T08:15:05.545Z,6.00
2018-04-15T08:17:33.105Z,5.80
2018-04-15T08:20:00.677Z,5.70
2018-04-15T08:22:30.552Z,5.87
2018-04-15T08:24:58.120Z,6.23
2018-04-15T08:27:25.645Z,6.30
2018-04-15T08:29:53.991Z,6.00
2018-04-15T08:32:21.588Z,6.07
2018-04-15T08:34:49.164Z,6.50
2018-04-15T08:37:17.492Z,5.70
2018-04-15T08:39:45.299Z,5.20
2018-04-15T08:42:13.590Z,5.43
2018-04-15T08:44:41.247Z,7.00
2018-04-15T08:47:08.808Z,5.67
2018-04-15T08:49:36.370Z,4.93
2018-04-15T08:52:03.910Z,5.47
2018-04-15T08:54:31.560Z,5.30
2018-04-15T08:56:59.205Z,5.10
2018-04-15T08:59:26.796Z,5.70
2018-04-15T09:01:55.139Z,5.10
2018-04-15T09:04:22.669Z,5.90
2018-04-15T09:06:50.282Z,4.93
2018-04-15T09:09:17.862Z,5.60
2018-04-15T09:11:46.150Z,5.53
2018-04-15T09:14:13.759Z,5.33
2018-04-15T09:16:41.359Z,5.90
2018-04-15T09:19:08.965Z,5.57
2018-04-15T09:21:36.528Z,5.20
2018-04-15T09:24:04.210Z,5.60
2018-04-15T09:26:31.846Z,5.50
2018-04-15T09:28:59.421Z,5.53
2018-04-15T09:31:26.977Z,5.40
2018-04-15T09:33:54.543Z,5.80
2018-04-15T09:36:22.434Z,5.13
2018-04-15T09:38:49.959Z,5.60
2018-04-15T09:41:17.584Z,5.27
2018-04-15T09:43:45.150Z,6.00
2018-04-15T09:46:12.763Z,5.47
2018-04-15T09:48:40.355Z,5.43
2018-04-15T09:51:07.969Z,5.47
2018-04-15T09:53:35.548Z,5.50
2018-04-15T09:56:03.102Z,5.70
2018-04-15T09:58:30.716Z,6.10
2018-04-15T10:01:03.147Z,5.63
2018-04-15T10:03:30.711Z,5.40
2018-04-15T10:05:58.307Z,5.40
2018-04-15T10:08:25.884Z,5.50
2018-04-15T10:10:54.422Z,5.37
2018-04-15T10:13:22.742Z,8.40
2018-04-15T10:15:50.304Z,6.13
2018-04-15T10:18:17.839Z,5.80
2018-04-15T10:20:45.457Z,5.40
2018-04-15T10:23:13.031Z,5.73
2018-04-15T10:25:40.636Z,5.20
2018-04-15T10:28:08.208Z,5.40
2018-04-15T10:30:35.809Z,5.10
2018-04-15T10:33:03.380Z,5.03
2018-04-15T10:35:31.699Z,5.23
2018-04-15T10:37:59.255Z,5.43
2018-04-15T10:40:26.831Z,5.67
2018-04-15T10:42:54.450Z,5.70
2018-04-15T10:45:22.758Z,5.47
2018-04-15T10:47:50.334Z,5.67
2018-04-15T10:50:17.978Z,5.63
2018-04-15T10:52:45.547Z,4.60
2018-04-15T10:55:13.148Z,5.47
2018-04-15T10:57:40.797Z,5.03
2018-04-15T11:00:08.345Z,5.50
2018-04-15T11:02:35.932Z,5.80
2018-04-15T11:05:03.534Z,5.40
2018-04-15T11:07:31.165Z,5.07
2018-04-15T11:09:59.495Z,5.17
2018-04-15T11:12:27.051Z,5.87
2018-04-15T11:14:54.634Z,5.47
2018-04-15T11:17:22.170Z,5.33
2018-04-15T11:19:49.778Z,5.10
2018-04-15T11:22:17.353Z,4.70
2018-04-15T11:24:44.936Z,4.83
2018-04-15T11:27:12.498Z,5.20
2018-04-15T11:29:40.170Z,4.43
2018-04-15T11:32:07.726Z,4.90
2018-04-15T11:34:35.439Z,4.83
2018-04-15T11:37:03.004Z,5.60
2018-04-15T11:39:30.563Z,5.30
2018-04-15T11:41:58.955Z,5.07
2018-04-15T11:44:26.524Z,4.53
2018-04-15T11:46:54.830Z,5.03
2018-04-15T11:49:22.359Z,4.80
2018-04-15T11:51:50.771Z,4.43
2018-04-15T11:54:18.322Z,4.70
2018-04-15T11:56:45.888Z,4.60
2018-04-15T11:59:13.449Z,4.70
2018-04-15T12:01:41.113Z,4.33
2018-04-15T12:04:09.632Z,4.67
2018-04-15T12:06:37.231Z,4.60
2018-04-15T12:09:04.888Z,4.50
2018-04-15T12:11:32.495Z,4.47
2018-04-15T12:14:00.036Z,4.93
2018-04-15T12:16:27.603Z,4.53
2018-04-15T12:18:55.175Z,4.43
2018-04-15T12:21:22.726Z,4.43
2018-04-15T12:23:50.251Z,4.00
2018-04-15T12:26:17.812Z,4.23
2018-04-15T12:28:45.368Z,3.87
2018-04-15T12:31:12.956Z,3.80
2018-04-15T12:33:40.543Z,4.07
2018-04-15T12:36:08.097Z,4.40
2018-04-15T12:38:35.700Z,3.80
2018-04-15T12:41:04.155Z,4.07
2018-04-15T12:43:31.790Z,4.20
2018-04-15T12:45:59.336Z,4.43
2018-04-15T12:48:26.960Z,4.10
2018-04-15T12:50:54.546Z,3.87
2018-04-15T12:53:22.132Z,4.40
2018-04-15T12:55:49.729Z,3.57
2018-04-15T12:58:17.414Z,3.87
2018-04-15T13:00:44.971Z,4.43
2018-04-15T13:03:13.300Z,3.37
2018-04-15T13:05:40.860Z,3.83
2018-04-15T13:08:08.385Z,3.50
2018-04-15T13:10:35.967Z,3.83
2018-04-15T13:13:03.499Z,3.53
2018-04-15T13:15:31.032Z,2.93
2018-04-15T13:17:58.605Z,2.97
2018-04-15T13:20:26.147Z,3.17
2018-04-15T13:22:54.492Z,2.87
2018-04-15T13:25:22.069Z,2.73
2018-04-15T13:27:49.625Z,2.50
2018-04-15T13:30:17.963Z,2.93
2018-04-15T13:32:45.536Z,3.03
2018-04-15T13:35:13.104Z,2.67
2018-04-15T13:37:40.676Z,2.60
2018-04-15T13:40:08.275Z,2.67
2018-04-15T13:42:36.614Z,2.67
2018-04-15T13:45:04.435Z,2.60
2018-04-15T13:47:32.028Z,2.33
2018-04-15T13:49:59.690Z,2.37
2018-04-15T13:52:27.436Z,2.70
2018-04-15T13:54:55.035Z,2.60
2018-04-15T13:57:23.412Z,2.80
2018-04-15T13:59:50.961Z,2.43
2018-04-15T14:02:18.732Z,2.67
2018-04-15T14:04:46.296Z,2.83
2018-04-15T14:07:13.859Z,2.50
2018-04-15T14:09:41.580Z,2.80
2018-04-15T14:12:09.233Z,2.87
2018-04-15T14:14:36.840Z,2.40
2018-04-15T14:17:04.509Z,2.80
2018-04-15T14:19:32.063Z,2.87
2018-04-15T14:21:59.611Z,2.77
2018-04-15T14:24:27.214Z,3.27
2018-04-15T14:26:54.760Z,3.00
2018-04-15T14:29:22.342Z,2.60
2018-04-15T14:31:49.931Z,3.00
2018-04-15T14:34:17.519Z,2.87
2018-04-15T14:36:45.097Z,3.17
2018-04-15T14:39:12.653Z,3.33
2018-04-15T14:41:40.261Z,3.43
2018-04-15T14:44:08.573Z,3.30
2018-04-15T14:46:36.143Z,3.43
2018-04-15T14:49:03.696Z,3.30
2018-04-15T14:51:31.310Z,3.30
2018-04-15T14:53:59.712Z,3.07
2018-04-15T14:56:27.255Z,3.43
2018-04-15T14:58:54.820Z,3.23
2018-04-15T15:01:22.399Z,2.90
2018-04-15T15:03:49.979Z,3.40
2018-04-15T15:06:17.538Z,2.60
2018-04-15T15:08:45.117Z,3.10
2018-04-15T15:11:12.783Z,2.60
2018-04-15T15:13:40.345Z,2.90
2018-04-15T15:16:08.679Z,2.80
2018-04-15T15:18:36.211Z,2.67
2018-04-15T15:21:03.841Z,2.33
2018-04-15T15:23:31.408Z,2.57
2018-04-15T15:25:59.020Z,2.40
2018-04-15T15:28:26.872Z,2.30
2018-04-15T15:30:54.452Z,2.87
2018-04-15T15:33:22.233Z,2.90
2018-04-15T15:35:49.880Z,3.23
2018-04-15T15:38:17.431Z,3.37
2018-04-15T15:40:45.036Z,3.30
2018-04-15T15:43:12.721Z,3.03
2018-04-15T15:45:40.326Z,2.57
2018-04-15T15:48:07.876Z,2.57
2018-04-15T15:50:35.464Z,2.63
2018-04-15T15:53:03.032Z,3.00
2018-04-15T15:55:30.605Z,2.83
2018-04-15T15:57:58.147Z,2.90
2018-04-15T16:00:25.737Z,2.60
2018-04-15T16:02:54.282Z,3.43
2018-04-15T16:05:21.920Z,3.23
2018-04-15T16:07:49.520Z,3.13
2018-04-15T16:10:17.200Z,2.77
2018-04-15T16:12:44.839Z,3.00
2018-04-15T16:15:12.436Z,3.00
2018-04-15T16:17:40.025Z,2.80
2018-04-15T16:20:07.600Z,2.60
2018-04-15T16:22:35.196Z,2.60
2018-04-15T16:25:02.735Z,2.83
2018-04-15T16:27:30.469Z,2.50
2018-04-15T16:29:58.059Z,3.00
2018-04-15T16:32:25.857Z,3.00
2018-04-15T16:34:53.497Z,4.30
2018-04-15T16:37:21.032Z,3.27
2018-04-15T16:39:48.607Z,2.93
2018-04-15T16:42:16.150Z,3.73
2018-04-15T16:44:43.800Z,3.70
2018-04-15T16:47:11.617Z,3.90
2018-04-15T16:49:39.992Z,3.77
2018-04-15T16:52:07.552Z,4.03
2018-04-15T16:54:35.868Z,3.87
2018-04-15T16:57:03.460Z,4.23
2018-04-15T16:59:31.034Z,3.83
2018-04-15T17:01:58.598Z,3.70
2018-04-15T17:04:26.285Z,3.83
2018-04-15T17:06:54.601Z,4.57
2018-04-15T17:09:22.207Z,4.10
2018-04-15T17:11:49.818Z,4.27
2018-04-15T17:14:17.360Z,4.17
2018-04-15T17:16:44.996Z,3.70
2018-04-15T17:19:12.629Z,3.57
2018-04-15T17:21:40.288Z,4.30
2018-04-15T17:24:07.856Z,4.13
2018-04-15T17:26:35.486Z,3.57
2018-04-15T17:29:04.012Z,3.80
2018-04-15T17:31:31.598Z,3.93
2018-04-15T17:33:59.147Z,3.97
2018-04-15T17:36:26.775Z,3.60
2018-04-15T17:38:54.373Z,3.63
2018-04-15T17:41:22.689Z,4.07
2018-04-15T17:43:50.313Z,3.67
2018-04-15T17:46:17.880Z,4.03
2018-04-15T17:48:45.651Z,3.93
2018-04-15T17:51:13.262Z,4.00
2018-04-15T17:53:47.155Z,4.73
2018-04-15T17:56:14.678Z,4.50
2018-04-15T17:58:42.210Z,3.93
2018-04-15T18:01:09.820Z,3.70
2018-04-15T18:03:37.449Z,3.90
2018-04-15T18:06:05.741Z,3.30
2018-04-15T18:08:33.305Z,3.50
2018-04-15T18:11:00.863Z,3.27
2018-04-15T18:13:28.471Z,3.13
2018-04-15T18:15:56.082Z,2.90
2018-04-15T18:18:23.624Z,3.30
2018-04-15T18:20:51.204Z,3.73
2018-04-15T18:23:18.748Z,3.60
2018-04-15T18:25:46.322Z,3.50
2018-04-15T18:28:14.300Z,3.67
2018-04-15T18:30:41.751Z,3.90
2018-04-15T18:33:09.298Z,3.30
2018-04-15T18:35:36.855Z,3.17
2018-04-15T18:38:04.469Z,3.67
2018-04-15T18:40:32.065Z,2.87
2018-04-15T18:42:59.611Z,3.80
2018-04-15T18:45:27.164Z,3.30
2018-04-15T18:47:54.777Z,3.10
2018-04-15T18:50:22.416Z,3.10
2018-04-15T18:52:49.934Z,3.03
2018-04-15T18:55:17.533Z,3.23
2018-04-15T18:57:45.040Z,3.40
2018-04-15T19:00:12.624Z,3.30
2018-04-15T19:02:40.164Z,3.97
2018-04-15T19:05:07.803Z,3.60
2018-04-15T19:07:35.384Z,3.67
2018-04-15T19:10:03.011Z,3.40
2018-04-15T19:12:30.577Z,3.83
2018-04-15T19:14:58.265Z,4.00
2018-04-15T19:17:25.892Z,3.70
2018-04-15T19:19:53.443Z,3.90
2018-04-15T19:22:21.023Z,3.90
2018-04-15T19:24:48.560Z,4.10
2018-04-15T19:27:16.232Z,4.17
2018-04-15T19:29:43.840Z,4.00
2018-04-15T19:32:11.381Z,3.70
2018-04-15T19:34:38.987Z,3.90
2018-04-15T19:37:06.519Z,4.07
2018-04-15T19:39:34.087Z,4.37
2018-04-15T19:42:01.784Z,3.90
2018-04-15T19:44:29.398Z,3.77
2018-04-15T19:46:56.956Z,4.20
2018-04-15T19:49:24.524Z,4.40
2018-04-15T19:51:52.059Z,3.50
2018-04-15T19:54:19.607Z,4.33
2018-04-15T19:56:47.125Z,4.50
2018-04-15T19:59:14.688Z,3.40
2018-04-15T20:01:42.248Z,4.10
2018-04-15T20:04:10.575Z,4.20
2018-04-15T20:06:38.119Z,4.47
2018-04-15T20:09:06.202Z,3.67
2018-04-15T20:11:33.767Z,4.20
2018-04-15T20:14:01.345Z,4.27
2018-04-15T20:16:28.881Z,4.30
2018-04-15T20:18:56.433Z,4.20
2018-04-15T20:21:24.006Z,4.57
2018-04-15T20:23:51.609Z,5.00
2018-04-15T20:26:19.204Z,4.90
2018-04-15T20:28:46.761Z,4.60
2018-04-15T20:31:14.356Z,4.30
2018-04-15T20:33:41.903Z,4.50
2018-04-15T20:36:09.455Z,4.40
2018-04-15T20:38:37.026Z,5.23
2018-04-15T20:41:04.676Z,4.47
2018-04-15T20:43:32.225Z,4.27
2018-04-15T20:45:59.787Z,3.57
2018-04-15T20:48:27.382Z,3.93
2018-04-15T20:50:54.916Z,4.73
2018-04-15T20:53:22.469Z,3.37
2018-04-15T20:55:50.028Z,3.53
2018-04-15T20:58:17.559Z,3.27
2018-04-15T21:00:45.123Z,3.10
2018-04-15T21:03:12.710Z,3.47
2018-04-15T21:05:40.344Z,3.17
2018-04-15T21:08:07.916Z,3.10
2018-04-15T21:10:36.258Z,3.07
2018-04-15T21:13:03.846Z,3.30
2018-04-15T21:15:31.467Z,3.70
2018-04-15T21:17:59.009Z,3.57
2018-04-15T21:20:26.568Z,3.30
2018-04-15T21:22:54.580Z,3.27
2018-04-15T21:25:22.199Z,3.00
2018-04-15T21:27:49.913Z,3.03
2018-04-15T21:30:17.454Z,3.53
2018-04-15T21:32:45.085Z,2.77
2018-04-15T21:35:12.641Z,3.20
2018-04-15T21:37:40.212Z,3.33
2018-04-15T21:40:07.731Z,3.77
2018-04-15T21:42:35.269Z,4.10
2018-04-15T21:45:02.831Z,4.33
2018-04-15T21:47:30.430Z,4.17
2018-04-15T21:49:58.004Z,4.43
2018-04-15T21:52:25.591Z,4.27
2018-04-15T21:54:53.161Z,4.07
2018-04-15T21:57:20.735Z,4.50
2018-04-15T21:59:49.170Z,4.80
2018-04-15T22:02:16.778Z,3.93
2018-04-15T22:04:44.340Z,3.93
2018-04-15T22:07:12.717Z,4.13
2018-04-15T22:09:41.057Z,4.53
2018-04-15T22:12:17.372Z,4.07
2018-04-15T22:14:44.973Z,4.17
2018-04-15T22:17:12.528Z,4.17
2018-04-15T22:19:40.059Z,4.30
2018-04-15T22:22:07.619Z,4.60
2018-04-15T22:24:35.153Z,4.60
2018-04-15T22:27:03.456Z,3.97
2018-04-15T22:29:31.088Z,4.10
2018-04-15T22:31:58.625Z,4.63
2018-04-15T22:34:26.175Z,3.90
2018-04-15T22:36:53.770Z,3.80
2018-04-15T22:39:21.300Z,3.37
2018-04-15T22:41:48.915Z,3.73
2018-04-15T22:44:17.246Z,3.60
2018-04-15T22:46:44.860Z,3.63
2018-04-15T22:49:18.137Z,3.27
2018-04-15T22:51:45.666Z,3.50
2018-04-15T22:54:13.212Z,3.50
2018-04-15T22:56:43.739Z,3.77
2018-04-15T22:59:11.270Z,4.00
2018-04-15T23:01:38.827Z,3.87
2018-04-15T23:04:06.419Z,4.27
2018-04-15T23:06:33.940Z,4.13
2018-04-15T23:09:01.522Z,4.30
2018-04-15T23:11:29.103Z,4.00
2018-04-15T23:13:56.645Z,4.70
2018-04-15T23:16:24.168Z,4.53
2018-04-15T23:18:51.762Z,3.97
2018-04-15T23:21:19.286Z,3.97
2018-04-15T23:23:46.864Z,4.40
2018-04-15T23:26:14.423Z,3.47
2018-04-15T23:28:41.984Z,3.77
2018-04-15T23:31:09.579Z,3.77
2018-04-15T23:33:37.113Z,3.40
2018-04-15T23:36:04.681Z,3.63
2018-04-15T23:38:32.222Z,3.37
2018-04-15T23:40:59.789Z,3.83
2018-04-15T23:43:27.313Z,3.67
2018-04-15T23:45:54.888Z,3.33
2018-04-15T23:48:22.487Z,3.53
2018-04-15T23:50:50.068Z,3.77
2018-04-15T23:53:17.629Z,3.80
2018-04-15T23:55:45.144Z,3.57
2018-04-15T23:58:12.749Z,3.80
